createdAt,value
2023-04-15T00:01:22.672Z,24.77
2023-04-15T00:03:56.736Z,25.33
2023-04-15T00:06:32.041Z,24.37
2023-04-15T00:09:07.218Z,25.23
2023-04-15T00:11:53.604Z,24.83
2023-04-15T00:14:26.631Z,24.57
2023-04-15T00:17:02.385Z,25.47
2023-04-15T00:19:35.226Z,25.30
2023-04-15T00:22:08.055Z,25.03
2023-04-15T00:24:41.061Z,23.57
2023-04-15T00:27:17.531Z,24.73
2023-04-15T00:29:50.265Z,24.33
2023-04-15T00:32:23.500Z,25.53
2023-04-15T00:34:59.352Z,26.30
2023-04-15T00:37:35.403Z,24.70
2023-04-15T00:40:15.737Z,27.60
2023-04-15T00:42:49.966Z,27.03
2023-04-15T00:45:22.695Z,25.47
2023-04-15T00:47:57.422Z,23.93
2023-04-15T00:50:33.020Z,25.93
2023-04-15T00:53:05.779Z,27.50
2023-04-15T00:55:40.682Z,25.47
2023-04-15T00:58:17.641Z,27.07
2023-04-15T01:00:54.187Z,27.33
2023-04-15T01:03:27.095Z,29.20
2023-04-15T01:06:02.990Z,27.90
2023-04-15T01:08:39.001Z,25.90
2023-04-15T01:11:11.858Z,26.53
2023-04-15T01:13:46.542Z,26.27
2023-04-15T01:16:19.419Z,27.43
2023-04-15T01:18:52.693Z,26.77
2023-04-15T01:21:25.471Z,29.07
2023-04-15T01:23:58.775Z,27.47
2023-04-15T01:26:35.474Z,28.97
2023-04-15T01:29:08.493Z,29.60
2023-04-15T01:31:41.352Z,30.77
2023-04-15T01:34:14.061Z,25.93
2023-04-15T01:36:46.917Z,28.60
2023-04-15T01:39:19.788Z,28.03
2023-04-15T01:41:56.062Z,29.53
2023-04-15T01:44:29.348Z,29.63
2023-04-15T01:47:02.195Z,28.97
2023-04-15T01:49:35.164Z,30.37
2023-04-15T01:52:08.084Z,30.80
2023-04-15T01:54:40.980Z,29.37
2023-04-15T01:57:15.158Z,31.23
2023-04-15T01:59:47.931Z,29.60
2023-04-15T02:02:23.015Z,30.40
2023-04-15T02:05:00.889Z,28.77
2023-04-15T02:07:33.738Z,30.37
2023-04-15T02:10:06.854Z,28.23
2023-04-15T02:12:40.964Z,30.00
2023-04-15T02:15:13.772Z,28.00
2023-04-15T02:17:51.107Z,29.73
2023-04-15T02:20:26.349Z,28.87
2023-04-15T02:22:59.280Z,29.70
2023-04-15T02:25:32.122Z,27.83
2023-04-15T02:28:07.257Z,29.30
2023-04-15T02:30:40.868Z,28.40
2023-04-15T02:33:13.650Z,28.77
2023-04-15T02:35:46.620Z,29.53
2023-04-15T02:38:19.444Z,28.30
2023-04-15T02:40:52.424Z,28.77
2023-04-15T02:43:26.713Z,28.57
2023-04-15T02:46:02.174Z,29.27
2023-04-15T02:48:37.402Z,29.40
2023-04-15T02:51:14.337Z,29.57
2023-04-15T02:53:47.149Z,29.40
2023-04-15T02:56:19.968Z,30.17
2023-04-15T02:58:56.202Z,28.43
2023-04-15T03:01:31.363Z,28.93
2023-04-15T03:04:04.485Z,29.80
2023-04-15T03:06:37.467Z,28.27
2023-04-15T03:09:10.315Z,27.63
2023-04-15T03:11:43.297Z,28.43
2023-04-15T03:14:17.501Z,28.43
2023-04-15T03:16:50.618Z,28.53
2023-04-15T03:19:23.568Z,27.57
2023-04-15T03:21:56.549Z,28.07
2023-04-15T03:24:30.309Z,27.47
2023-04-15T03:27:03.419Z,27.40
2023-04-15T03:29:37.589Z,27.13
2023-04-15T03:32:11.299Z,27.67
2023-04-15T03:34:44.419Z,27.70
2023-04-15T03:37:17.166Z,28.77
2023-04-15T03:39:50.159Z,26.93
2023-04-15T03:42:28.557Z,27.70
2023-04-15T03:45:03.529Z,25.37
2023-04-15T03:47:36.390Z,25.97
2023-04-15T03:50:09.561Z,27.23
2023-04-15T03:52:42.569Z,26.33
2023-04-15T03:55:15.659Z,27.10
2023-04-15T03:57:48.630Z,26.10
2023-04-15T04:00:23.030Z,25.70
2023-04-15T04:02:56.234Z,26.73
2023-04-15T04:05:29.276Z,25.80
2023-04-15T04:08:02.106Z,26.77
2023-04-15T04:10:34.872Z,26.40
2023-04-15T04:13:07.864Z,24.90
2023-04-15T04:15:42.024Z,27.03
2023-04-15T04:18:14.770Z,25.70
2023-04-15T04:20:47.538Z,26.23
2023-04-15T04:23:20.328Z,26.20
2023-04-15T04:25:53.568Z,26.00
2023-04-15T04:28:26.309Z,25.00
2023-04-15T04:31:00.427Z,25.73
2023-04-15T04:33:33.300Z,25.73
2023-04-15T04:36:06.599Z,24.80
2023-04-15T04:38:39.377Z,25.80
2023-04-15T04:41:12.180Z,24.50
2023-04-15T04:43:45.182Z,24.70
2023-04-15T04:46:19.684Z,25.27
2023-04-15T04:48:52.530Z,24.50
2023-04-15T04:51:26.146Z,24.97
2023-04-15T04:53:59.074Z,24.57
2023-04-15T04:56:31.917Z,25.37
2023-04-15T04:59:04.862Z,24.77
2023-04-15T05:01:39.261Z,24.67
2023-04-15T05:04:12.329Z,24.03
2023-04-15T05:06:45.404Z,25.10
2023-04-15T05:09:18.190Z,23.70
2023-04-15T05:11:50.967Z,24.30
2023-04-15T05:14:27.189Z,22.30
2023-04-15T05:17:01.860Z,22.93
2023-04-15T05:19:34.844Z,23.30
2023-04-15T05:22:08.002Z,22.73
2023-04-15T05:24:41.063Z,21.97
2023-04-15T05:27:14.109Z,23.07
2023-04-15T05:29:46.912Z,21.90
2023-04-15T05:32:22.076Z,21.67
2023-04-15T05:34:54.994Z,23.83
2023-04-15T05:37:27.949Z,21.10
2023-04-15T05:40:01.126Z,21.23
2023-04-15T05:42:36.651Z,21.37
2023-04-15T05:45:10.092Z,20.87
2023-04-15T05:47:44.316Z,21.70
2023-04-15T05:50:17.239Z,20.43
2023-04-15T05:52:50.036Z,21.20
2023-04-15T05:55:23.229Z,20.57
2023-04-15T05:57:56.127Z,21.17
2023-04-15T06:00:33.711Z,20.07
2023-04-15T06:03:10.054Z,20.73
2023-04-15T06:05:45.074Z,20.13
2023-04-15T06:08:17.833Z,20.30
2023-04-15T06:10:50.655Z,18.87
2023-04-15T06:13:23.555Z,18.77
2023-04-15T06:15:56.966Z,19.73
2023-04-15T06:18:31.520Z,17.53
2023-04-15T06:21:04.293Z,18.17
2023-04-15T06:23:37.272Z,18.93
2023-04-15T06:26:10.146Z,18.13
2023-04-15T06:28:42.918Z,18.57
2023-04-15T06:31:16.145Z,17.20
2023-04-15T06:33:50.650Z,17.73
2023-04-15T06:36:23.495Z,18.03
2023-04-15T06:38:56.641Z,15.87
2023-04-15T06:41:29.481Z,15.77
2023-04-15T06:44:04.395Z,16.83
2023-04-15T06:46:39.530Z,15.00
2023-04-15T06:49:16.039Z,14.47
2023-04-15T06:51:49.056Z,13.80
2023-04-15T06:54:24.253Z,14.97
2023-04-15T06:56:57.052Z,13.03
2023-04-15T06:59:29.958Z,13.63
2023-04-15T07:02:05.293Z,14.13
2023-04-15T07:04:41.901Z,13.80
2023-04-15T07:07:15.292Z,13.73
2023-04-15T07:09:51.011Z,13.70
2023-04-15T07:12:23.830Z,13.23
2023-04-15T07:14:56.561Z,11.73
2023-04-15T07:17:29.439Z,12.03
2023-04-15T07:20:04.453Z,12.33
2023-04-15T07:22:37.158Z,12.97
2023-04-15T07:25:10.299Z,12.37
2023-04-15T07:27:43.072Z,12.83
2023-04-15T07:30:16.036Z,13.13
2023-04-15T07:32:48.936Z,12.90
2023-04-15T07:35:23.427Z,12.37
2023-04-15T07:37:56.291Z,12.77
2023-04-15T07:40:29.103Z,12.83
2023-04-15T07:43:02.662Z,13.40
2023-04-15T07:45:35.571Z,13.40
2023-04-15T07:48:08.423Z,14.00
2023-04-15T07:50:42.839Z,14.30
2023-04-15T07:53:15.647Z,13.30
2023-04-15T07:55:51.297Z,13.57
2023-04-15T07:58:24.352Z,13.50
2023-04-15T08:00:57.216Z,14.07
2023-04-15T08:03:30.040Z,13.83
2023-04-15T08:06:04.456Z,14.10
2023-04-15T08:08:37.590Z,13.97
2023-04-15T08:11:10.845Z,14.57
2023-04-15T08:13:43.703Z,13.47
2023-04-15T08:16:20.457Z,13.43
2023-04-15T08:18:53.804Z,13.83
2023-04-15T08:21:31.892Z,15.03
2023-04-15T08:24:04.923Z,13.90
2023-04-15T08:26:37.780Z,14.20
2023-04-15T08:29:10.784Z,14.63
2023-04-15T08:31:43.763Z,14.17
2023-04-15T08:34:16.741Z,13.47
2023-04-15T08:36:51.070Z,14.13
2023-04-15T08:39:24.026Z,14.67
2023-04-15T08:41:58.190Z,14.53
2023-04-15T08:44:31.851Z,14.63
2023-04-15T08:47:06.234Z,13.90
2023-04-15T08:49:41.057Z,15.87
2023-04-15T08:52:15.419Z,14.80
2023-04-15T08:54:49.009Z,15.07
2023-04-15T08:57:21.819Z,14.93
2023-04-15T08:59:54.882Z,15.10
2023-04-15T09:02:28.502Z,14.33
2023-04-15T09:05:04.974Z,14.53
2023-04-15T09:07:39.193Z,15.20
2023-04-15T09:10:12.747Z,14.53
2023-04-15T09:12:46.003Z,14.93
2023-04-15T09:15:19.274Z,14.87
2023-04-15T09:17:52.500Z,14.33
2023-04-15T09:20:25.477Z,15.33
2023-04-15T09:22:59.804Z,14.30
2023-04-15T09:25:34.765Z,14.50
2023-04-15T09:28:07.780Z,14.50
2023-04-15T09:30:46.216Z,14.70
2023-04-15T09:33:19.348Z,14.30
2023-04-15T09:36:00.044Z,14.23
2023-04-15T09:38:34.265Z,14.93
2023-04-15T09:41:19.596Z,13.90
2023-04-15T09:43:52.541Z,13.73
2023-04-15T09:46:40.247Z,14.47
2023-04-15T09:49:13.406Z,13.57
2023-04-15T09:52:01.408Z,14.33
2023-04-15T09:54:39.299Z,13.80
2023-04-15T09:57:12.276Z,14.70
2023-04-15T09:59:45.089Z,14.40
2023-04-15T10:02:19.575Z,14.33
2023-04-15T10:04:53.769Z,14.37
2023-04-15T10:07:26.839Z,14.30
2023-04-15T10:10:02.055Z,14.03
2023-04-15T10:12:35.369Z,15.67
2023-04-15T10:15:11.146Z,15.30
2023-04-15T10:17:45.259Z,14.93
2023-04-15T10:20:21.015Z,14.20
2023-04-15T10:22:56.051Z,15.13
2023-04-15T10:25:30.728Z,14.73
2023-04-15T10:28:03.731Z,14.70
2023-04-15T10:30:37.860Z,14.30
2023-04-15T10:33:11.153Z,15.97
2023-04-15T10:35:44.977Z,14.60
2023-04-15T10:38:34.160Z,14.83
2023-04-15T10:41:16.628Z,14.93
2023-04-15T10:43:52.892Z,15.00
2023-04-15T10:46:36.684Z,14.47
2023-04-15T10:49:11.080Z,15.17
2023-04-15T10:51:44.657Z,14.40
2023-04-15T10:54:18.073Z,15.77
2023-04-15T10:56:54.183Z,14.77
2023-04-15T10:59:27.309Z,14.37
2023-04-15T11:02:01.923Z,14.30
2023-04-15T11:04:54.076Z,15.20
2023-04-15T11:07:37.158Z,14.60
2023-04-15T11:10:28.810Z,14.07
2023-04-15T11:13:03.930Z,14.90
2023-04-15T11:15:37.970Z,14.73
2023-04-15T11:18:11.704Z,14.80
2023-04-15T11:20:46.147Z,14.30
2023-04-15T11:23:19.377Z,15.17
2023-04-15T11:25:54.909Z,14.60
2023-04-15T11:28:30.350Z,14.63
2023-04-15T11:31:07.361Z,13.67
2023-04-15T11:33:48.784Z,13.33
2023-04-15T11:36:21.782Z,13.20
2023-04-15T11:38:56.025Z,13.40
2023-04-15T11:41:29.172Z,14.30
2023-04-15T11:44:03.731Z,13.20
2023-04-15T11:46:37.209Z,13.20
2023-04-15T11:49:15.233Z,13.53
2023-04-15T11:51:48.352Z,12.77
2023-04-15T11:54:21.311Z,14.07
2023-04-15T11:56:54.748Z,14.00
2023-04-15T11:59:45.426Z,12.97
2023-04-15T12:02:18.943Z,13.27
2023-04-15T12:04:51.968Z,13.67
2023-04-15T12:07:25.685Z,12.57
2023-04-15T12:09:58.953Z,13.70
2023-04-15T12:12:32.401Z,13.70
2023-04-15T12:15:10.886Z,13.10
2023-04-15T12:17:50.930Z,13.77
2023-04-15T12:20:27.027Z,13.50
2023-04-15T12:23:07.057Z,13.23
2023-04-15T12:25:40.016Z,12.93
2023-04-15T12:28:12.967Z,12.60
2023-04-15T12:30:52.498Z,13.07
2023-04-15T12:33:25.972Z,13.00
2023-04-15T12:35:59.374Z,12.47
2023-04-15T12:38:32.551Z,12.87
2023-04-15T12:41:08.422Z,13.03
2023-04-15T12:43:42.225Z,13.67
2023-04-15T12:46:16.767Z,12.80
2023-04-15T12:48:49.618Z,12.93
2023-04-15T12:51:22.859Z,12.93
2023-04-15T12:53:55.426Z,13.50
2023-04-15T12:56:28.222Z,13.07
2023-04-15T12:59:03.400Z,14.43
2023-04-15T13:01:38.070Z,13.20
2023-04-15T13:04:13.834Z,12.50
2023-04-15T13:06:46.793Z,13.27
2023-04-15T13:09:19.772Z,12.80
2023-04-15T13:11:52.944Z,12.77
2023-04-15T13:14:27.161Z,12.57
2023-04-15T13:17:08.880Z,11.90
2023-04-15T13:19:41.800Z,13.20
2023-04-15T13:22:16.685Z,13.53
2023-04-15T13:24:49.652Z,11.67
2023-04-15T13:27:24.516Z,11.53
2023-04-15T13:29:57.496Z,11.50
2023-04-15T13:32:33.586Z,13.27
2023-04-15T13:35:11.792Z,11.90
2023-04-15T13:37:45.501Z,11.63
2023-04-15T13:40:18.325Z,13.23
2023-04-15T13:42:53.254Z,11.90
2023-04-15T13:45:27.286Z,12.70
2023-04-15T13:48:01.644Z,12.00
2023-04-15T13:50:35.977Z,12.20
2023-04-15T13:53:09.133Z,12.27
2023-04-15T13:55:42.885Z,13.23
2023-04-15T13:58:15.774Z,13.37
2023-04-15T14:00:49.458Z,13.30
2023-04-15T14:03:24.072Z,13.17
2023-04-15T14:05:58.178Z,12.57
2023-04-15T14:08:31.122Z,12.80
2023-04-15T14:11:04.090Z,13.50
2023-04-15T14:13:37.291Z,13.03
2023-04-15T14:16:10.305Z,13.57
2023-04-15T14:18:45.574Z,13.63
2023-04-15T14:21:18.501Z,12.90
2023-04-15T14:23:51.500Z,12.63
2023-04-15T14:26:24.293Z,13.03
2023-04-15T14:28:57.173Z,14.10
2023-04-15T14:31:30.758Z,13.87
2023-04-15T14:34:05.126Z,13.13
2023-04-15T14:36:38.158Z,12.70
2023-04-15T14:39:12.989Z,12.47
2023-04-15T14:41:45.872Z,11.93
2023-04-15T14:44:18.679Z,12.00
2023-04-15T14:46:52.069Z,11.93
2023-04-15T14:49:26.303Z,13.13
2023-04-15T14:51:59.190Z,10.93
2023-04-15T14:54:32.281Z,11.57
2023-04-15T14:57:05.382Z,10.27
2023-04-15T14:59:38.324Z,9.63
2023-04-15T15:02:17.288Z,9.73
2023-04-15T15:05:02.208Z,10.77
2023-04-15T15:07:36.145Z,11.17
2023-04-15T15:10:09.417Z,10.50
2023-04-15T15:12:42.412Z,10.60
2023-04-15T15:15:28.472Z,10.73
2023-04-15T15:18:01.964Z,10.80
2023-04-15T15:20:36.237Z,10.63
2023-04-15T15:23:09.120Z,10.40
2023-04-15T15:25:42.103Z,10.10
2023-04-15T15:28:15.132Z,10.57
2023-04-15T15:30:47.989Z,9.47
2023-04-15T15:33:21.110Z,11.67
2023-04-15T15:35:55.398Z,9.93
2023-04-15T15:38:29.081Z,9.80
2023-04-15T15:41:02.053Z,9.90
2023-04-15T15:43:35.153Z,9.20
2023-04-15T15:46:08.148Z,10.47
2023-04-15T15:48:41.231Z,9.70
2023-04-15T15:51:15.462Z,9.23
2023-04-15T15:53:55.900Z,9.50
2023-04-15T15:56:28.893Z,9.20
2023-04-15T15:59:01.759Z,9.30
2023-04-15T16:01:34.751Z,9.53
2023-04-15T16:04:07.966Z,8.30
2023-04-15T16:06:44.512Z,8.67
2023-04-15T16:09:17.459Z,9.33
2023-04-15T16:11:50.346Z,8.60
2023-04-15T16:14:23.362Z,9.43
2023-04-15T16:16:57.287Z,9.77
2023-04-15T16:19:37.628Z,9.67
2023-04-15T16:22:11.827Z,8.70
2023-04-15T16:24:44.725Z,9.17
2023-04-15T16:27:17.529Z,9.03
2023-04-15T16:29:50.258Z,8.97
2023-04-15T16:32:23.103Z,9.33
2023-04-15T16:34:56.758Z,9.27
2023-04-15T16:37:31.407Z,9.10
2023-04-15T16:40:04.620Z,9.60
2023-04-15T16:42:43.375Z,8.87
2023-04-15T16:45:16.315Z,10.20
2023-04-15T16:47:49.081Z,10.50
2023-04-15T16:50:22.079Z,10.80
2023-04-15T16:52:56.417Z,11.37
2023-04-15T16:55:29.649Z,11.40
2023-04-15T16:58:04.645Z,11.13
2023-04-15T17:00:40.363Z,12.03
2023-04-15T17:03:13.297Z,12.33
2023-04-15T17:05:46.400Z,11.97
2023-04-15T17:08:20.562Z,11.03
2023-04-15T17:10:55.035Z,11.10
2023-04-15T17:13:27.677Z,11.60
2023-04-15T17:16:00.575Z,10.20
2023-04-15T17:18:35.889Z,10.90
2023-04-15T17:21:08.663Z,11.13
2023-04-15T17:23:42.794Z,11.10
2023-04-15T17:26:18.179Z,10.67
2023-04-15T17:28:51.060Z,10.10
2023-04-15T17:31:23.886Z,10.47
2023-04-15T17:34:04.571Z,9.67
2023-04-15T17:36:42.369Z,10.27
2023-04-15T17:39:16.777Z,9.50
2023-04-15T17:41:49.560Z,9.37
2023-04-15T17:44:25.476Z,9.80
2023-04-15T17:46:58.612Z,9.70
2023-04-15T17:49:34.062Z,9.80
2023-04-15T17:52:07.009Z,9.43
2023-04-15T17:54:42.164Z,9.93
2023-04-15T17:57:15.134Z,10.07
2023-04-15T17:59:48.757Z,9.60
2023-04-15T18:02:22.500Z,9.93
2023-04-15T18:04:55.528Z,10.03
2023-04-15T18:07:28.563Z,10.50
2023-04-15T18:10:02.694Z,9.87
2023-04-15T18:12:35.438Z,11.47
2023-04-15T18:15:09.452Z,10.80
2023-04-15T18:17:42.223Z,11.67
2023-04-15T18:20:15.349Z,11.40
2023-04-15T18:22:48.180Z,11.67
2023-04-15T18:25:22.278Z,13.17
2023-04-15T18:27:55.502Z,12.77
2023-04-15T18:30:28.289Z,14.00
2023-04-15T18:33:01.254Z,15.63
2023-04-15T18:35:35.237Z,15.23
2023-04-15T18:38:08.747Z,13.57
2023-04-15T18:40:42.919Z,14.73
2023-04-15T18:43:15.860Z,13.73
2023-04-15T18:45:48.590Z,13.60
2023-04-15T18:48:21.483Z,12.90
2023-04-15T18:50:54.384Z,13.77
2023-04-15T18:53:28.035Z,13.57
2023-04-15T18:56:05.234Z,14.73
2023-04-15T18:59:09.706Z,13.80
2023-04-15T19:01:32.770Z,14.27
2023-04-15T19:04:06.507Z,14.93
2023-04-15T19:06:41.778Z,17.03
2023-04-15T19:09:15.070Z,17.40
2023-04-15T19:11:49.200Z,16.13
2023-04-15T19:14:22.011Z,16.27
2023-04-15T19:16:54.835Z,16.07
2023-04-15T19:19:29.348Z,16.73
2023-04-15T19:22:03.344Z,17.03
2023-04-15T19:24:36.560Z,17.83
2023-04-15T19:27:10.640Z,17.40
2023-04-15T19:29:43.444Z,17.33
2023-04-15T19:32:16.295Z,18.47
2023-04-15T19:34:49.274Z,18.27
2023-04-15T19:37:22.076Z,18.70
2023-04-15T19:39:55.259Z,18.90
2023-04-15T19:42:29.477Z,19.43
2023-04-15T19:45:02.237Z,19.03
2023-04-15T19:47:35.206Z,19.70
2023-04-15T19:50:09.989Z,18.63
2023-04-15T19:52:45.547Z,19.83
2023-04-15T19:55:18.298Z,19.83
2023-04-15T19:57:52.582Z,20.80
2023-04-15T20:00:25.595Z,20.60
2023-04-15T20:02:58.682Z,18.67
2023-04-15T20:05:31.619Z,19.63
2023-04-15T20:08:04.367Z,20.13
2023-04-15T20:10:37.344Z,20.00
2023-04-15T20:13:13.690Z,19.03
2023-04-15T20:15:46.472Z,18.17
2023-04-15T20:18:19.235Z,18.37
2023-04-15T20:20:52.554Z,19.13
2023-04-15T20:23:25.374Z,18.53
2023-04-15T20:25:58.260Z,19.10
2023-04-15T20:28:34.601Z,18.37
2023-04-15T20:31:08.519Z,17.87
2023-04-15T20:33:41.472Z,19.67
2023-04-15T20:36:14.385Z,18.73
2023-04-15T20:38:47.112Z,18.43
2023-04-15T20:41:21.533Z,18.67
2023-04-15T20:43:55.897Z,18.57
2023-04-15T20:46:29.127Z,19.03
2023-04-15T20:49:02.023Z,19.23
2023-04-15T20:51:39.592Z,19.53
2023-04-15T20:54:15.128Z,18.77
2023-04-15T20:56:47.964Z,19.37
2023-04-15T20:59:22.024Z,19.13
2023-04-15T21:01:56.840Z,19.93
2023-04-15T21:04:29.824Z,19.83
2023-04-15T21:07:02.588Z,19.20
2023-04-15T21:09:35.372Z,20.13
2023-04-15T21:12:08.278Z,19.83
2023-04-15T21:14:42.586Z,20.07
2023-04-15T21:17:16.751Z,19.67
2023-04-15T21:19:49.659Z,19.83
2023-04-15T21:22:22.517Z,19.20
2023-04-15T21:24:55.379Z,19.07
2023-04-15T21:27:28.137Z,18.67
2023-04-15T21:30:02.357Z,19.37
2023-04-15T21:32:42.954Z,19.47
2023-04-15T21:35:16.030Z,20.03
2023-04-15T21:37:51.904Z,19.77
2023-04-15T21:40:24.603Z,19.53
2023-04-15T21:42:57.522Z,19.47
2023-04-15T21:45:34.606Z,19.47
2023-04-15T21:48:08.670Z,20.60
2023-04-15T21:50:41.821Z,19.93
2023-04-15T21:53:15.381Z,19.27
2023-04-15T21:55:48.203Z,20.03
2023-04-15T21:58:20.946Z,19.77
2023-04-15T22:00:59.094Z,20.10
2023-04-15T22:03:33.806Z,19.73
2023-04-15T22:06:07.203Z,19.27
2023-04-15T22:08:52.408Z,20.33
2023-04-15T22:11:30.445Z,20.43
2023-04-15T22:14:03.271Z,20.90
2023-04-15T22:16:38.776Z,19.43
2023-04-15T22:19:11.923Z,21.20
2023-04-15T22:21:44.637Z,21.60
2023-04-15T22:24:38.164Z,21.47
2023-04-15T22:27:10.749Z,20.10
2023-04-15T22:29:43.491Z,21.47
2023-04-15T22:32:17.702Z,21.17
2023-04-15T22:34:50.545Z,22.23
2023-04-15T22:37:23.946Z,22.23
2023-04-15T22:39:56.676Z,22.33
2023-04-15T22:42:29.453Z,22.40
2023-04-15T22:45:02.277Z,22.53
2023-04-15T22:47:36.453Z,21.30
2023-04-15T22:50:11.153Z,23.23
2023-04-15T22:52:46.054Z,22.70
2023-04-15T22:55:18.960Z,22.47
2023-04-15T22:57:52.700Z,21.33
2023-04-15T23:00:26.507Z,22.57
2023-04-15T23:03:00.896Z,22.50
2023-04-15T23:05:36.090Z,22.70
2023-04-15T23:08:09.357Z,21.37
2023-04-15T23:10:44.642Z,23.83
2023-04-15T23:13:17.440Z,22.73
2023-04-15T23:15:55.277Z,24.07
2023-04-15T23:18:30.202Z,22.83
2023-04-15T23:21:04.082Z,23.60
2023-04-15T23:23:36.935Z,23.53
2023-04-15T23:26:09.721Z,24.13
2023-04-15T23:28:42.520Z,21.90
2023-04-15T23:31:15.329Z,23.57
2023-04-15T23:33:49.418Z,22.83
2023-04-15T23:36:22.277Z,21.93
2023-04-15T23:38:55.390Z,22.87
2023-04-15T23:41:28.116Z,26.90
2023-04-15T23:44:01.254Z,27.53
2023-04-15T23:46:36.873Z,26.37
2023-04-15T23:49:16.943Z,24.80
2023-04-15T23:51:51.018Z,23.63
2023-04-15T23:54:23.936Z,23.10
2023-04-15T23:57:00.328Z,24.27
2023-04-15T23:59:33.007Z,25.20
